Chris — V7XF8 — position and weather

sailwx.info

Track history (hours):
 
Tides and Currents Weather Stations Pressure Air Temp Water Temp Dewpoint Dewpoint Depression Visibility Wind Speed Wind Dir Waves Ship Positions

Chris

Last reported at 2018-Feb-13 18:51 UTC. Time now 2018-Feb-20 04:22 UTC.
Position N 01°15' E 103°24'.

Length 225 m; draft 7.9 m.

Type: Cargo ship. MMSI: 538004472.

Date/timePositionNaut miles runAvg speedWind from/ knotsBaromVisibWave heightAir tempDewpointWater temp
2018-Feb-13 18:51N 01°15' E 103°24'412.6
2018-Feb-13 18:30N 01°14' E 103°28'612.3
2018-Feb-13 18:00N 01°12' E 103°34'612.5
2018-Feb-13 17:30N 01°10' E 103°40'611.1
2018-Feb-13 16:59N 01°09' E 103°46'713.5
2018-Feb-13 16:30N 01°12' E 103°52'612.6
2018-Feb-13 16:00N 01°15' E 103°57'5 9.1
2018-Feb-13 15:29N 01°17' E 104°02'1 0.3
2018-Feb-13 12:21N 01°17' E 104°01'0 0.1
2018-Feb-13 11:58N 01°17' E 104°01'0 0.1
2018-Feb-13 11:30N 01°17' E 104°01'0 0.0
2018-Feb-13 11:00N 01°17' E 104°01'0 0.1
2018-Feb-13 10:20N 01°17' E 104°01'0 0.1
2018-Feb-13 09:53N 01°17' E 104°01'0 0.3
2018-Feb-13 09:28N 01°17' E 104°01'0 0.1
2018-Feb-13 08:57N 01°17' E 104°01'0 0.1
2018-Feb-13 08:30N 01°17' E 104°01'0 0.1
2018-Feb-13 07:59N 01°17' E 104°01'0 0.2
2018-Feb-13 07:30N 01°17' E 104°01'1 2.8
2018-Feb-13 07:00N 01°16' E 104°00'1 2.0
2018-Feb-13 06:30N 01°16' E 103°59'2 4.2
2018-Feb-13 05:59N 01°16' E 104°02'2 4.1
2018-Feb-13 05:29N 01°16' E 104°04'  
Track history (hours):
 
Tides and Currents Weather Stations Pressure Air Temp Water Temp Dewpoint Dewpoint Depression Visibility Wind Speed Wind Dir Waves Ship Positions

Chris

Last reported at 2018-Feb-13 18:51 UTC. Time now 2018-Feb-20 04:22 UTC.
Position N 01°15' E 103°24'.

Length 225 m; draft 7.9 m.

Type: Cargo ship. MMSI: 538004472.

Date/timePositionNaut miles runAvg speedWind from/ knotsBaromVisibWave heightAir tempDewpointWater temp
2018-Feb-13 18:51N 01°15' E 103°24'412.6
2018-Feb-13 18:30N 01°14' E 103°28'612.3
2018-Feb-13 18:00N 01°12' E 103°34'612.5
2018-Feb-13 17:30N 01°10' E 103°40'611.1
2018-Feb-13 16:59N 01°09' E 103°46'713.5
2018-Feb-13 16:30N 01°12' E 103°52'612.6
2018-Feb-13 16:00N 01°15' E 103°57'5 9.1
2018-Feb-13 15:29N 01°17' E 104°02'1 0.3
2018-Feb-13 12:21N 01°17' E 104°01'0 0.1
2018-Feb-13 11:58N 01°17' E 104°01'0 0.1
2018-Feb-13 11:30N 01°17' E 104°01'0 0.0
2018-Feb-13 11:00N 01°17' E 104°01'0 0.1
2018-Feb-13 10:20N 01°17' E 104°01'0 0.1
2018-Feb-13 09:53N 01°17' E 104°01'0 0.3
2018-Feb-13 09:28N 01°17' E 104°01'0 0.1
2018-Feb-13 08:57N 01°17' E 104°01'0 0.1
2018-Feb-13 08:30N 01°17' E 104°01'0 0.1
2018-Feb-13 07:59N 01°17' E 104°01'0 0.2
2018-Feb-13 07:30N 01°17' E 104°01'1 2.8
2018-Feb-13 07:00N 01°16' E 104°00'1 2.0
2018-Feb-13 06:30N 01°16' E 103°59'2 4.2
2018-Feb-13 05:59N 01°16' E 104°02'2 4.1
2018-Feb-13 05:29N 01°16' E 104°04'  

Dump ship's entire track history